Terminal Aerodrome Forecast
Issued by NWS

Home | Current Version | Previous Version | Text Only | Print | Product List | Glossary On
Versions: 1 2 3 4 5 6 7 8 9 10 11 12
186
FTUS44 KSJT 231120
TAFSOA
TAF
KSOA 231120Z 2312/2412 17007KT P6SM SKC
     FM231800 16008G15KT P6SM FEW080
     FM240000 15009KT P6SM SKC=

USA.gov is the U.S. government's official web portal to all federal, state and local government web resources and services.